Time;durP1;ratioP1;P1;durP2;ratioP2;P2;SDS_P1;SDS_P2;PMS_P1;PMS_P2;Temp;Humidity;BMP_temperature;BMP_pressure;BME280_temperature;BME280_humidity;BME280_pressure;Samples;Min_cycle;Max_cycle;Signal;HPM_P1;HPM_P2
2021/07/14 00:00:39;;;;;;;9.77;8.38;;;16.60;99.90;;;16.28;98.81;101527.38;4202206;28;20032;-75
2021/07/14 00:02:40;;;;;;;9.95;8.95;;;16.50;99.90;;;16.36;98.43;101538.00;4202960;28;20491;-75
2021/07/14 00:04:41;;;;;;;8.85;7.95;;;16.60;99.90;;;16.30;98.78;101532.53;4202798;28;20024;-75
2021/07/14 00:06:42;;;;;;;12.38;9.45;;;16.50;99.90;;;16.28;98.50;101532.69;4185361;28;20037;-75
2021/07/14 00:08:43;;;;;;;13.23;9.20;;;16.50;99.90;;;16.25;98.83;101532.22;4203020;28;20467;-75
2021/07/14 00:10:44;;;;;;;13.52;10.32;;;16.50;99.90;;;16.36;98.19;101537.16;4185074;28;20539;-75
2021/07/14 00:22:09;;;;;;;14.50;9.68;;;16.40;99.90;;;16.22;99.25;101524.59;4215860;28;20063;-75
2021/07/14 00:24:10;;;;;;;13.27;10.00;;;16.40;99.90;;;16.35;98.71;101533.66;4187768;28;20522;-75
2021/07/14 00:26:10;;;;;;;13.20;9.10;;;16.40;99.90;;;16.25;99.39;101527.72;4184872;28;20032;-75
2021/07/14 00:28:13;;;;;;;12.57;9.65;;;16.50;99.90;;;16.29;99.17;101534.38;4192045;28;20060;-75
2021/07/14 00:30:22;;;;;;;14.10;9.73;;;16.50;99.90;;;16.25;99.12;101529.56;4198690;28;20032;-75
2021/07/14 00:32:25;;;;;;;13.68;10.13;;;16.50;99.90;;;16.19;99.57;101524.94;4185781;28;20032;-75
2021/07/14 00:34:25;;;;;;;13.05;9.80;;;16.50;99.90;;;16.17;100.00;101529.59;4202491;28;20024;-75
2021/07/14 00:36:26;;;;;;;15.50;10.68;;;16.50;99.90;;;16.18;100.00;101534.75;4202481;28;20094;-75
2021/07/14 00:38:27;;;;;;;15.98;10.80;;;16.40;99.90;;;16.13;99.58;101528.31;4184651;28;20052;-75
2021/07/14 00:40:28;;;;;;;18.58;11.88;;;16.50;99.90;;;16.08;100.00;101515.50;4202282;28;20055;-75
2021/07/14 00:42:29;;;;;;;14.73;10.05;;;16.50;99.90;;;16.02;100.00;101519.69;4202423;28;20046;-75
2021/07/14 00:44:30;;;;;;;14.13;10.43;;;16.40;99.90;;;16.04;100.00;101522.16;4167827;28;20030;-75
2021/07/14 00:46:31;;;;;;;13.07;10.07;;;16.40;99.90;;;16.12;100.00;101524.81;4202325;28;20090;-75
2021/07/14 00:48:32;;;;;;;16.13;10.90;;;16.40;99.90;;;16.05;100.00;101514.00;4167877;28;20560;-75
2021/07/14 00:50:34;;;;;;;13.88;9.65;;;16.40;99.90;;;16.13;100.00;101525.63;4202262;28;20020;-75
2021/07/14 00:52:36;;;;;;;12.05;9.70;;;16.40;99.90;;;16.10;100.00;101516.13;4184339;28;20120;-75
2021/07/14 00:54:37;;;;;;;14.93;10.70;;;16.40;99.90;;;16.06;100.00;101509.53;4184437;28;20032;-75
2021/07/14 00:56:39;;;;;;;14.55;9.80;;;16.40;99.90;;;16.07;100.00;101510.34;4184253;28;20173;-75
2021/07/14 00:58:41;;;;;;;15.75;10.43;;;16.40;99.90;;;16.07;100.00;101500.53;4184452;28;20054;-75
2021/07/14 01:00:42;;;;;;;14.73;10.88;;;16.30;99.90;;;16.07;100.00;101510.34;4201601;28;20036;-75
2021/07/14 01:02:43;;;;;;;13.20;9.38;;;16.40;99.90;;;15.97;100.00;101506.06;4184320;28;20400;-75
2021/07/14 01:05:01;;;;;;;13.43;10.23;;;16.30;99.90;;;16.03;100.00;101515.19;4184214;28;20039;-75
2021/07/14 01:07:25;;;;;;;20.98;10.80;;;16.30;99.90;;;16.02;100.00;101508.19;4186233;28;20073;-75
2021/07/14 01:09:59;;;;;;;17.42;10.85;;;16.30;99.90;;;16.09;100.00;101503.84;4184158;28;20073;-75
2021/07/14 01:12:12;;;;;;;11.45;8.80;;;16.30;99.90;;;16.08;100.00;101514.66;4183604;28;20025;-75
2021/07/14 01:14:35;;;;;;;13.73;9.13;;;16.30;99.90;;;16.01;100.00;101518.00;4184017;28;20029;-75
2021/07/14 01:16:45;;;;;;;12.57;9.23;;;16.30;99.90;;;15.99;100.00;101511.22;4185735;28;20060;-75
2021/07/14 01:18:58;;;;;;;13.60;9.55;;;16.20;99.90;;;15.94;100.00;101511.75;4184425;28;20455;-75
2021/07/14 01:21:28;;;;;;;13.70;10.80;;;16.20;99.90;;;15.78;100.00;101516.25;4184428;28;20028;-75
2021/07/14 01:24:13;;;;;;;13.73;8.90;;;16.20;99.90;;;15.93;100.00;101528.69;4185850;28;20521;-75
2021/07/14 01:26:16;;;;;;;15.32;9.93;;;16.20;99.90;;;16.00;100.00;101520.88;4191434;28;20029;-75
2021/07/14 01:28:25;;;;;;;16.92;10.15;;;16.20;99.90;;;15.98;100.00;101523.69;4191925;28;20040;-75
2021/07/14 01:30:27;;;;;;;13.75;10.15;;;16.30;99.90;;;15.94;100.00;101533.03;4184074;28;20043;-75
2021/07/14 01:32:30;;;;;;;15.30;10.98;;;16.30;99.90;;;15.97;100.00;101529.19;4184084;28;20103;-75
2021/07/14 01:34:32;;;;;;;14.13;10.77;;;16.30;99.90;;;15.94;100.00;101519.72;4167592;28;20540;-75
2021/07/14 01:36:36;;;;;;;16.27;10.82;;;16.30;99.90;;;15.97;100.00;101518.53;4167285;28;20116;-75
2021/07/14 01:38:40;;;;;;;17.50;11.25;;;16.30;99.90;;;15.94;100.00;101529.53;4183809;28;20025;-75
2021/07/14 01:40:42;;;;;;;12.93;10.43;;;16.30;99.90;;;15.90;100.00;101525.53;4187492;28;20055;-75
2021/07/14 01:42:50;;;;;;;16.45;11.25;;;16.30;99.90;;;15.92;100.00;101520.88;4183807;28;20503;-75
2021/07/14 01:44:54;;;;;;;13.88;10.38;;;16.30;99.90;;;15.94;100.00;101519.72;4199702;28;20020;-75
2021/07/14 01:47:00;;;;;;;16.42;10.85;;;16.30;99.90;;;15.96;100.00;101508.88;4216875;28;20455;-75
2021/07/14 01:49:07;;;;;;;12.32;9.82;;;16.30;99.90;;;15.92;100.00;101511.06;4201671;28;20012;-75
2021/07/14 01:51:11;;;;;;;15.57;10.60;;;16.20;99.90;;;15.91;100.00;101508.59;4183991;28;20063;-75
2021/07/14 01:53:12;;;;;;;13.85;9.98;;;16.20;99.90;;;15.97;100.00;101510.56;4201259;28;20467;-75
2021/07/14 01:55:13;;;;;;;17.35;11.25;;;16.30;99.90;;;15.93;100.00;101511.91;4183854;28;20036;-75
2021/07/14 01:57:15;;;;;;;12.98;10.45;;;16.30;99.90;;;16.01;100.00;101511.84;4190544;28;20035;-75
2021/07/14 01:59:18;;;;;;;16.55;10.35;;;16.30;99.90;;;16.05;100.00;101498.03;4191482;28;20033;-75
2021/07/14 02:01:20;;;;;;;16.52;12.27;;;16.30;99.90;;;16.03;100.00;101515.19;4185889;28;20029;-75
2021/07/14 02:03:39;;;;;;;15.32;11.32;;;16.40;99.90;;;15.98;100.00;101506.88;4201481;28;20517;-75
2021/07/14 02:05:43;;;;;;;16.90;10.18;;;16.40;99.90;;;15.98;100.00;101506.88;4186084;28;20111;-75
2021/07/14 02:07:44;;;;;;;12.60;10.10;;;16.40;99.90;;;15.96;100.00;101512.38;4201359;28;20028;-75
2021/07/14 02:09:47;;;;;;;16.33;11.45;;;16.40;99.90;;;15.99;100.00;101519.19;4183552;28;20052;-75
2021/07/14 02:11:51;;;;;;;14.23;10.23;;;16.40;99.90;;;15.93;100.00;101519.88;4183467;28;20103;-75
2021/07/14 02:13:55;;;;;;;14.73;11.35;;;16.30;99.90;;;15.81;100.00;101513.25;4183769;28;20037;-75
2021/07/14 02:15:59;;;;;;;20.10;11.90;;;16.30;99.90;;;15.93;100.00;101519.88;4183372;28;20059;-75
2021/07/14 02:18:11;;;;;;;14.02;10.18;;;16.20;99.90;;;15.90;100.00;101514.91;4201686;28;20107;-75
2021/07/14 02:20:17;;;;;;;15.00;10.77;;;16.20;99.90;;;15.91;100.00;101509.41;4184152;28;20032;-75
2021/07/14 02:22:18;;;;;;;17.08;11.13;;;16.20;99.90;;;15.85;100.00;101522.56;4200935;28;20039;-75
2021/07/14 02:24:19;;;;;;;14.48;9.52;;;16.20;99.90;;;15.75;100.00;101511.28;4185209;28;20108;-75
2021/07/14 02:26:20;;;;;;;15.88;10.50;;;16.20;99.90;;;15.87;100.00;101515.25;4203263;28;20385;-75
2021/07/14 02:28:21;;;;;;;16.90;10.50;;;16.10;99.90;;;15.83;100.00;101513.94;4220187;28;20046;-75
2021/07/14 02:30:23;;;;;;;14.00;10.30;;;16.20;99.90;;;15.80;100.00;101514.28;4186495;28;20068;-75
2021/07/14 02:32:25;;;;;;;17.83;11.48;;;16.20;99.90;;;15.97;100.00;101521.19;4204194;28;20100;-75
2021/07/14 02:34:26;;;;;;;17.42;11.27;;;16.20;99.90;;;15.93;100.00;101510.06;4186827;28;20108;-75
2021/07/14 02:36:31;;;;;;;14.20;11.30;;;16.20;99.90;;;15.95;100.00;101513.38;4204370;28;20043;-75
2021/07/14 02:38:41;;;;;;;15.43;11.02;;;16.30;99.90;;;15.87;100.00;101523.22;4186702;28;20033;-75
2021/07/14 02:40:56;;;;;;;18.15;11.05;;;16.20;99.90;;;15.92;100.00;101513.72;4202691;28;20048;-75
2021/07/14 02:43:02;;;;;;;16.05;10.45;;;16.30;99.90;;;15.92;100.00;101512.88;4170045;28;20029;-75
2021/07/14 02:45:06;;;;;;;16.88;11.88;;;16.30;99.90;;;15.93;100.00;101504.75;4186497;28;20483;-75
2021/07/14 02:47:09;;;;;;;18.85;11.15;;;16.30;99.90;;;16.01;100.00;101525.16;4169772;28;20547;-75
2021/07/14 02:49:16;;;;;;;13.88;9.93;;;16.40;99.90;;;15.90;100.00;101521.06;4169904;28;20026;-75
2021/07/14 02:51:19;;;;;;;13.30;10.65;;;16.30;99.90;;;15.89;100.00;101531.84;4153801;28;20405;-75
2021/07/14 02:53:26;;;;;;;16.55;11.18;;;16.30;99.90;;;15.96;100.00;101522.19;4169734;28;20587;-75
2021/07/14 02:55:31;;;;;;;13.82;10.20;;;16.30;99.90;;;15.86;100.00;101529.56;4169969;28;20037;-75
2021/07/14 02:57:38;;;;;;;18.45;12.77;;;16.20;99.90;;;15.77;100.00;101523.41;4169751;28;20029;-75
2021/07/14 02:59:45;;;;;;;18.75;11.05;;;16.30;99.90;;;15.74;100.00;101515.78;4169370;28;20108;-75
2021/07/14 03:01:48;;;;;;;17.08;10.73;;;16.30;99.90;;;15.85;100.00;101533.22;4169670;28;20021;-75
2021/07/14 03:03:52;;;;;;;17.45;11.85;;;16.20;99.90;;;15.81;100.00;101532.72;4169786;28;20101;-75
2021/07/14 03:05:59;;;;;;;18.05;12.02;;;16.20;99.90;;;15.88;100.00;101535.53;4169679;28;20117;-75
2021/07/14 03:08:06;;;;;;;15.43;10.73;;;16.20;99.90;;;15.84;100.00;101536.88;4153306;28;20516;-75
2021/07/14 03:10:08;;;;;;;15.88;12.77;;;16.20;99.90;;;15.77;100.00;101530.59;4169886;28;20037;-75
2021/07/14 03:12:12;;;;;;;16.48;12.68;;;16.20;99.90;;;15.76;100.00;101527.09;4170756;28;20434;-75
2021/07/14 03:14:15;;;;;;;19.98;12.05;;;16.20;99.90;;;15.80;100.00;101530.25;4169710;28;20523;-75
2021/07/14 03:16:17;;;;;;;17.02;11.85;;;16.10;99.90;;;15.70;100.00;101525.13;4169433;28;20432;-75
2021/07/14 03:18:22;;;;;;;16.95;12.32;;;16.10;99.90;;;15.68;100.00;101529.75;4169589;28;20108;-74
2021/07/14 03:20:23;;;;;;;;;;;16.10;99.90;;;15.69;100.00;101527.94;4169929;28;20496;-75
2021/07/14 03:22:25;;;;;;;16.58;11.80;;;16.10;99.90;;;15.74;100.00;101544.22;4169186;28;19913;-75
2021/07/14 03:24:27;;;;;;;15.32;11.55;;;16.10;99.90;;;15.69;100.00;101536.75;4169469;28;20017;-75
2021/07/14 03:26:28;;;;;;;15.15;10.75;;;16.10;99.90;;;15.65;100.00;101529.28;4170493;28;20065;-75
2021/07/14 03:28:31;;;;;;;14.30;11.27;;;16.10;99.90;;;15.68;100.00;101534.25;4170631;28;20028;-75
2021/07/14 03:30:32;;;;;;;14.75;11.65;;;16.10;99.90;;;15.70;100.00;101545.56;4170356;28;20404;-75
2021/07/14 03:32:33;;;;;;;16.33;11.68;;;16.10;99.90;;;15.70;100.00;101529.59;4152681;28;20022;-75
2021/07/14 03:34:35;;;;;;;14.25;11.38;;;16.10;99.90;;;15.69;100.00;101533.25;4169472;28;20057;-75
2021/07/14 03:36:37;;;;;;;16.02;12.20;;;16.10;99.90;;;15.67;100.00;101537.91;4169572;28;20032;-75
2021/07/14 03:38:39;;;;;;;17.38;10.15;;;16.00;99.90;;;15.70;100.00;101551.72;4169129;28;20116;-75
2021/07/14 03:40:42;;;;;;;15.95;11.45;;;16.00;99.90;;;15.74;100.00;101547.69;4176941;28;20067;-75
2021/07/14 03:42:47;;;;;;;15.10;12.23;;;16.00;99.90;;;15.68;100.00;101542.25;4185505;28;20029;-75
2021/07/14 03:44:49;;;;;;;16.52;11.02;;;16.10;99.90;;;15.79;100.00;101550.69;4185596;28;20131;-75
2021/07/14 03:46:51;;;;;;;17.35;11.18;;;16.10;99.90;;;15.79;100.00;101555.19;4185398;28;20029;-75
2021/07/14 03:48:53;;;;;;;13.63;10.40;;;16.20;99.90;;;15.81;100.00;101559.31;4185641;28;20052;-75
2021/07/14 03:50:55;;;;;;;17.95;10.15;;;16.30;99.90;;;15.75;100.00;101543.22;4185516;28;20021;-75
2021/07/14 03:52:57;;;;;;;17.33;11.40;;;16.30;99.90;;;15.91;100.00;101565.31;4168687;28;20045;-75
2021/07/14 03:55:00;;;;;;;19.10;12.73;;;16.30;99.90;;;15.91;100.00;101559.97;4185325;28;20025;-75
2021/07/14 03:57:02;;;;;;;15.95;10.80;;;16.30;99.90;;;15.87;100.00;101561.31;4185479;28;20546;-75
2021/07/14 03:59:03;;;;;;;13.80;11.52;;;16.40;99.90;;;15.79;100.00;101560.50;4185524;28;20051;-75
2021/07/14 04:01:04;;;;;;;16.55;12.00;;;16.30;99.90;;;15.83;100.00;101557.31;4184898;28;20025;-75
2021/07/14 04:03:11;;;;;;;14.05;10.57;;;16.40;99.90;;;15.88;100.00;101548.84;4184994;28;20056;-75
2021/07/14 04:05:16;;;;;;;13.90;11.25;;;16.40;99.90;;;15.90;100.00;101554.81;4185467;28;20106;-75
2021/07/14 04:07:26;;;;;;;17.25;12.70;;;16.40;99.90;;;15.84;100.00;101559.00;4168772;28;20037;-74
2021/07/14 04:09:28;;;;;;;16.85;12.00;;;16.40;99.90;;;15.92;100.00;101555.47;4185217;28;20474;-75
2021/07/14 04:11:29;;;;;;;15.15;11.43;;;16.40;99.90;;;15.92;100.00;101550.97;4168155;28;20036;-75
2021/07/14 04:13:29;;;;;;;16.90;11.55;;;16.40;99.90;;;15.91;100.00;101559.13;4185263;28;20108;-75
2021/07/14 04:15:30;;;;;;;16.42;11.30;;;16.40;99.90;;;15.83;100.00;101556.50;4186074;28;20029;-75
2021/07/14 04:17:31;;;;;;;16.95;12.18;;;16.40;99.90;;;15.81;100.00;101559.31;4185068;28;20524;-75
2021/07/14 04:19:33;;;;;;;17.27;11.85;;;16.40;99.90;;;15.84;100.00;101563.47;4186366;28;20063;-74
2021/07/14 04:21:36;;;;;;;16.30;12.07;;;16.40;99.90;;;15.85;100.00;101557.16;4185133;28;20024;-75
2021/07/14 04:23:37;;;;;;;18.52;11.55;;;16.40;99.90;;;15.90;100.00;101563.63;4186233;28;20029;-75
2021/07/14 04:25:38;;;;;;;22.00;10.15;;;16.40;99.90;;;15.90;100.00;101558.31;4185902;28;20032;-75
2021/07/14 04:27:39;;;;;;;16.95;11.80;;;16.40;99.90;;;15.87;100.00;101563.13;4184990;28;20037;-75
2021/07/14 04:29:40;;;;;;;16.20;12.07;;;16.40;99.90;;;15.84;100.00;101555.50;4184589;28;20025;-75
2021/07/14 04:31:41;;;;;;;21.17;12.77;;;16.40;99.90;;;15.90;100.00;101563.63;4185933;28;20059;-75
2021/07/14 04:33:43;;;;;;;15.75;11.27;;;16.50;99.90;;;15.98;100.00;101573.41;4185823;28;20029;-75
2021/07/14 04:35:44;;;;;;;14.65;11.00;;;16.50;99.90;;;15.99;100.00;101572.41;4184788;28;20032;-75
2021/07/14 04:37:49;;;;;;;16.17;11.20;;;16.50;99.90;;;16.01;100.00;101573.06;4184710;28;20468;-75
2021/07/14 04:39:50;;;;;;;14.80;12.00;;;16.50;99.90;;;16.08;100.00;101571.38;4168145;28;20025;-75
2021/07/14 04:41:51;;;;;;;19.88;12.88;;;16.60;99.90;;;16.06;100.00;101576.06;4184577;28;20033;-75
2021/07/14 04:43:52;;;;;;;15.48;11.15;;;16.60;99.90;;;16.07;100.00;101569.72;4184783;28;20040;-75
2021/07/14 04:45:53;;;;;;;12.30;10.40;;;16.60;99.90;;;16.16;100.00;101575.88;4185444;28;20033;-75
2021/07/14 04:47:54;;;;;;;15.77;11.15;;;16.60;99.90;;;16.14;100.00;101576.03;4166791;28;20029;-75
2021/07/14 04:49:55;;;;;;;14.80;10.60;;;16.60;99.90;;;16.23;100.00;101579.47;4185737;28;20484;-75
2021/07/14 04:51:56;;;;;;;14.40;11.25;;;16.70;99.90;;;16.14;100.00;101562.72;4184590;28;20029;-75
2021/07/14 04:53:57;;;;;;;12.75;9.27;;;16.70;99.90;;;16.19;100.00;101573.66;4184583;28;20538;-74
2021/07/14 04:55:59;;;;;;;17.13;12.23;;;16.70;99.90;;;16.20;100.00;101574.50;4184276;28;20025;-75
2021/07/14 04:58:00;;;;;;;13.52;10.35;;;16.70;99.90;;;16.18;100.00;101582.69;4185668;28;20467;-76
2021/07/14 05:00:04;;;;;;;14.80;10.82;;;16.70;99.90;;;16.16;100.00;101563.38;4185149;28;20108;-75
2021/07/14 05:02:06;;;;;;;14.60;9.48;;;16.70;99.90;;;16.18;100.00;101577.34;4185595;28;20055;-75
2021/07/14 05:04:07;;;;;;;15.95;11.73;;;16.70;99.90;;;16.22;100.00;101565.34;4184411;28;20032;-75
2021/07/14 05:06:08;;;;;;;14.10;10.80;;;16.70;99.90;;;16.26;100.00;101569.31;4184094;28;20029;-75
2021/07/14 05:08:09;;;;;;;17.00;10.85;;;16.80;99.90;;;16.02;100.00;101577.41;4185440;28;20094;-75
2021/07/14 05:10:11;;;;;;;15.57;11.48;;;16.80;99.90;;;16.09;100.00;101585.53;4184165;28;20416;-75
2021/07/14 05:12:11;;;;;;;15.20;10.88;;;16.70;99.90;;;16.13;100.00;101585.00;4185379;28;20036;-75
2021/07/14 05:14:12;;;;;;;15.43;11.02;;;16.80;99.90;;;16.12;100.00;101594.00;4184090;28;20071;-75
2021/07/14 05:16:13;;;;;;;15.82;11.55;;;16.70;99.90;;;16.01;100.00;101587.19;4185181;28;20056;-75
2021/07/14 05:18:14;;;;;;;15.00;10.02;;;16.70;99.90;;;15.99;100.00;101585.72;4185426;28;20048;-75
2021/07/14 05:20:17;;;;;;;16.55;9.52;;;16.70;99.90;;;16.11;100.00;101589.69;4184166;28;20025;-75
2021/07/14 05:22:18;;;;;;;15.48;10.90;;;16.70;99.90;;;16.03;100.00;101579.06;4184119;28;20033;-75
2021/07/14 05:24:19;;;;;;;14.93;10.13;;;16.70;99.90;;;16.07;100.00;101585.69;4185082;28;20044;-74
2021/07/14 05:26:20;;;;;;;16.25;9.40;;;16.80;99.90;;;16.19;100.00;101584.31;4183760;28;20082;-75
2021/07/14 05:28:21;;;;;;;16.90;10.02;;;16.80;99.90;;;16.21;100.00;101582.34;4184083;28;20108;-75
2021/07/14 05:30:22;;;;;;;15.98;9.85;;;16.80;99.90;;;16.18;100.00;101582.69;4183821;28;20033;-75
2021/07/14 05:32:23;;;;;;;16.08;9.85;;;16.90;99.90;;;16.09;100.00;101577.53;4183952;28;20032;-75
2021/07/14 05:34:24;;;;;;;13.10;9.98;;;16.90;99.90;;;16.19;100.00;101588.84;4185188;28;20104;-75
2021/07/14 05:36:25;;;;;;;18.85;10.35;;;16.80;99.90;;;16.18;100.00;101585.34;4183908;28;20108;-75
2021/07/14 05:38:28;;;;;;;12.45;10.32;;;16.90;99.90;;;16.28;100.00;101585.13;4185076;28;20064;-75
2021/07/14 05:40:30;;;;;;;14.32;9.80;;;16.90;99.90;;;16.28;99.74;101585.94;4183587;28;20044;-75
2021/07/14 05:42:31;;;;;;;15.23;10.63;;;16.90;99.90;;;16.37;99.65;101598.22;4183995;28;20040;-75
2021/07/14 05:44:32;;;;;;;11.00;8.90;;;16.90;99.90;;;16.31;99.62;101592.75;4183556;28;20396;-75
2021/07/14 05:46:34;;;;;;;15.68;10.32;;;17.00;99.90;;;16.36;98.96;101593.94;4183730;28;20033;-75
2021/07/14 05:48:35;;;;;;;14.00;9.60;;;17.00;99.90;;;16.41;98.87;101599.56;4178786;28;20512;-75
2021/07/14 05:50:37;;;;;;;15.20;10.43;;;17.00;99.90;;;16.37;99.05;101590.25;4185092;28;20044;-75
2021/07/14 05:52:38;;;;;;;16.35;9.85;;;17.10;99.90;;;16.39;98.05;101600.72;4183820;28;20116;-74
2021/07/14 05:54:39;;;;;;;14.43;10.55;;;17.10;99.90;;;16.43;97.91;101608.19;4167609;28;20076;-75
2021/07/14 05:56:41;;;;;;;13.40;9.25;;;17.20;99.90;;;16.55;97.83;101616.66;4167012;28;20053;-75
2021/07/14 05:58:42;;;;;;;15.70;10.60;;;17.20;99.90;;;16.42;97.79;101611.03;4166645;28;20037;-75
2021/07/14 06:00:43;;;;;;;15.02;9.95;;;17.10;99.90;;;16.48;97.49;101613.00;4183450;28;20053;-75
2021/07/14 06:02:44;;;;;;;16.13;9.98;;;17.20;99.90;;;16.56;97.39;101607.66;4183549;28;20032;-75
2021/07/14 06:04:45;;;;;;;17.52;11.45;;;17.20;99.90;;;16.59;97.76;101612.66;4184569;28;20064;-75
2021/07/14 06:06:46;;;;;;;14.48;11.45;;;17.20;99.90;;;16.35;97.16;101608.22;4184797;28;20404;-75
2021/07/14 06:08:47;;;;;;;17.92;12.18;;;17.20;99.90;;;16.33;97.91;101610.25;4184765;28;20388;-75
2021/07/14 06:10:48;;;;;;;15.88;10.60;;;17.20;99.90;;;16.32;98.28;101615.72;4183444;28;20068;-75
2021/07/14 06:12:55;;;;;;;13.65;11.02;;;17.20;99.90;;;16.29;97.64;101616.91;4166902;28;20041;-75
2021/07/14 06:14:56;;;;;;;18.88;12.05;;;17.10;99.90;;;16.37;97.52;101614.19;4183407;28;20028;-75
2021/07/14 06:16:57;;;;;;;15.85;11.43;;;17.20;99.90;;;16.35;97.44;101620.72;4183634;28;20063;-75
2021/07/14 06:18:58;;;;;;;14.57;10.10;;;17.20;99.90;;;16.43;97.36;101624.16;4183623;28;20025;-75
2021/07/14 06:20:59;;;;;;;13.18;9.45;;;17.10;99.90;;;16.48;97.46;101613.84;4180288;28;20101;-74
2021/07/14 06:23:00;;;;;;;13.02;9.82;;;17.20;99.90;;;16.47;97.08;101619.34;4182162;28;20128;-74
2021/07/14 06:25:00;;;;;;;13.70;9.82;;;17.20;99.90;;;16.42;96.93;101617.19;4183537;28;20488;-74
2021/07/14 06:27:01;;;;;;;11.68;9.18;;;17.20;99.90;;;16.49;96.46;101619.97;4182232;28;20072;-73
2021/07/14 06:29:03;;;;;;;12.68;9.88;;;17.30;99.90;;;16.61;96.03;101620.50;4182652;28;20496;-74
2021/07/14 06:31:04;;;;;;;14.27;10.15;;;17.30;99.90;;;16.47;96.15;101616.66;4166038;28;20117;-74
2021/07/14 06:33:05;;;;;;;15.00;8.65;;;17.30;99.90;;;16.62;96.76;101616.81;4182821;28;20504;-76
2021/07/14 06:35:09;;;;;;;15.35;10.38;;;17.30;99.90;;;16.70;95.91;101625.56;4182896;28;20068;-74
2021/07/14 06:37:10;;;;;;;10.27;8.82;;;17.40;99.90;;;16.79;96.14;101621.88;4182849;28;20048;-75
2021/07/14 06:39:11;;;;;;;11.73;8.95;;;17.50;99.90;;;16.88;95.95;101633.31;4182998;28;20582;-74
2021/07/14 06:41:14;;;;;;;14.00;10.43;;;17.50;99.90;;;16.82;95.37;101626.00;4187561;28;20049;-74
2021/07/14 06:43:18;;;;;;;14.02;9.55;;;17.60;99.90;;;16.85;95.47;101628.31;4182751;28;20443;-75
2021/07/14 06:45:24;;;;;;;13.40;10.13;;;17.60;99.90;;;17.01;94.39;101637.06;4200186;28;20112;-75
2021/07/14 06:47:25;;;;;;;14.20;10.55;;;17.70;99.90;;;16.87;93.96;101632.50;4182429;28;20493;-74
2021/07/14 06:49:26;;;;;;;15.27;10.63;;;17.70;99.90;;;16.88;94.09;101633.31;4181909;28;20052;-74
2021/07/14 06:51:28;;;;;;;13.77;9.23;;;17.70;99.90;;;16.85;94.56;101637.16;4182816;28;20029;-74
2021/07/14 06:53:29;;;;;;;14.43;9.80;;;17.80;99.90;;;16.75;94.93;101633.06;4199090;28;20050;-74
2021/07/14 06:55:34;;;;;;;11.90;8.80;;;17.80;99.90;;;16.83;94.21;101638.34;4197513;28;20033;-74
2021/07/14 06:57:36;;;;;;;11.30;9.18;;;17.70;99.90;;;16.75;94.13;101638.38;4182610;28;20031;-74
2021/07/14 06:59:37;;;;;;;13.25;8.85;;;17.80;99.90;;;16.72;94.00;101642.25;4215665;28;20023;-74
2021/07/14 07:01:38;;;;;;;13.00;8.85;;;17.70;99.90;;;16.72;93.61;101647.56;4200362;28;20092;-75
2021/07/14 07:03:39;;;;;;;11.65;8.23;;;17.70;99.90;;;16.80;93.46;101646.69;4200353;28;20445;-74
2021/07/14 07:05:40;;;;;;;10.55;8.43;;;17.70;99.90;;;16.78;93.61;101659.34;4200155;28;20050;-75
2021/07/14 07:07:41;;;;;;;11.30;8.20;;;17.70;99.90;;;16.77;94.05;101658.53;4182476;28;20021;-74
2021/07/14 07:09:44;;;;;;;10.70;8.65;;;17.70;99.90;;;16.93;93.04;101658.47;4200318;28;20020;-75
2021/07/14 07:11:45;;;;;;;10.60;8.35;;;17.70;99.90;;;16.96;92.82;101662.59;4185072;28;20033;-73
2021/07/14 07:13:46;;;;;;;11.07;7.40;;;17.70;99.90;;;17.03;93.05;101664.38;4202884;28;20031;-72
2021/07/14 07:15:47;;;;;;;11.30;8.95;;;17.80;99.90;;;16.96;92.86;101668.75;4202783;28;20055;-75
2021/07/14 07:17:48;;;;;;;10.75;8.15;;;17.90;99.90;;;16.97;91.95;101666.91;4185725;28;20506;-74
2021/07/14 07:19:49;;;;;;;10.98;8.55;;;17.90;99.90;;;17.13;92.98;101664.16;4202826;28;20035;-74
2021/07/14 07:21:51;;;;;;;10.85;8.88;;;18.00;99.90;;;17.15;90.95;101665.63;4203203;28;20027;-75
2021/07/14 07:23:52;;;;;;;10.88;8.15;;;18.00;99.90;;;17.16;90.17;101674.47;4185260;28;20187;-74
2021/07/14 07:25:54;;;;;;;11.00;8.10;;;18.00;99.90;;;16.96;90.83;101681.25;4202990;28;20021;-74
2021/07/14 07:27:58;;;;;;;11.68;8.02;;;18.00;99.90;;;16.85;91.30;101678.97;4203353;28;20025;-74
2021/07/14 07:29:59;;;;;;;;;;;17.90;99.90;;;16.91;91.06;101681.75;4169673;28;20018;-74
2021/07/14 07:32:00;;;;;;;9.15;7.70;;;17.90;99.90;;;16.80;90.62;101682.16;4185876;28;20438;-74
2021/07/14 07:34:01;;;;;;;13.07;8.55;;;17.90;99.90;;;16.99;90.38;101684.38;4203275;28;20068;-74
2021/07/14 07:36:03;;;;;;;9.18;7.72;;;17.90;99.90;;;16.99;91.65;101679.03;4203346;28;20035;-74
2021/07/14 07:38:05;;;;;;;8.95;7.53;;;17.90;99.90;;;16.92;91.35;101682.59;4185560;28;20095;-74
2021/07/14 07:40:07;;;;;;;9.40;8.10;;;17.90;99.90;;;16.88;91.36;101681.28;4203097;28;20086;-74
2021/07/14 07:42:08;;;;;;;11.55;8.10;;;17.90;99.90;;;17.05;91.37;101680.22;4203218;28;20071;-74
2021/07/14 07:44:09;;;;;;;12.57;8.60;;;18.00;99.90;;;17.13;90.84;101682.81;4203295;28;20024;-74
2021/07/14 07:46:10;;;;;;;13.38;8.65;;;18.00;99.90;;;17.17;91.08;101684.94;4185325;28;20052;-74
2021/07/14 07:48:11;;;;;;;9.55;7.78;;;18.10;99.90;;;17.15;90.83;101688.78;4185574;28;20029;-74
2021/07/14 07:50:13;;;;;;;9.65;8.07;;;18.10;99.90;;;17.17;90.15;101680.63;4185389;28;20484;-74
2021/07/14 07:52:15;;;;;;;10.30;8.57;;;18.10;99.90;;;17.35;89.49;101690.00;4185654;28;20021;-74
2021/07/14 07:54:16;;;;;;;12.40;8.82;;;18.20;99.90;;;17.38;89.05;101694.16;4185402;28;20630;-74
2021/07/14 07:56:17;;;;;;;9.45;7.88;;;18.20;99.90;;;17.31;89.78;101698.53;4202925;28;20025;-73
2021/07/14 07:58:20;;;;;;;11.75;8.82;;;18.30;99.90;;;17.02;90.67;101693.88;4202929;28;20032;-74
2021/07/14 08:00:21;;;;;;;11.18;9.23;;;18.20;99.90;;;17.01;90.05;101690.38;4185125;28;20385;-74
2021/07/14 08:02:22;;;;;;;10.20;8.43;;;18.20;99.90;;;17.01;90.96;101694.88;4202933;28;20036;-74
2021/07/14 08:04:23;;;;;;;10.77;8.52;;;18.10;99.90;;;17.08;90.30;101687.84;4202917;28;20028;-74
2021/07/14 08:06:24;;;;;;;10.63;7.80;;;18.10;99.90;;;17.25;90.09;101684.09;4202495;28;20035;-74
2021/07/14 08:08:25;;;;;;;11.07;8.73;;;18.20;99.90;;;17.08;89.43;101687.84;4185196;28;20025;-74
2021/07/14 08:10:26;;;;;;;11.65;8.18;;;18.20;99.90;;;16.99;90.72;101695.03;4202870;28;20051;-73
2021/07/14 08:12:27;;;;;;;9.70;7.95;;;18.30;99.90;;;17.10;90.84;101692.00;4185034;28;20060;-73
2021/07/14 08:14:28;;;;;;;11.27;8.07;;;18.30;99.90;;;17.40;89.95;101700.97;4202425;28;20475;-74
2021/07/14 08:16:30;;;;;;;8.70;7.28;;;18.40;99.90;;;17.35;88.23;101692.66;4202722;28;20024;-74
2021/07/14 08:18:31;;;;;;;8.50;7.13;;;18.40;99.90;;;17.40;88.97;101698.31;4184965;28;20021;-73
2021/07/14 08:20:32;;;;;;;9.07;7.78;;;18.40;99.90;;;17.55;87.88;101693.91;4202640;28;20024;-74
2021/07/14 08:22:34;;;;;;;10.48;8.15;;;18.50;99.90;;;17.32;88.95;101708.22;4184370;28;20032;-73
2021/07/14 08:24:35;;;;;;;12.10;8.00;;;18.60;99.90;;;17.55;87.95;101703.75;4202515;28;20070;-74
2021/07/14 08:26:36;;;;;;;10.18;8.40;;;18.70;99.90;;;17.62;86.12;101704.69;4184558;28;20033;-74
2021/07/14 08:28:37;;;;;;;10.02;8.13;;;18.80;99.90;;;17.64;86.01;101700.84;4202344;28;20027;-74
2021/07/14 08:30:38;;;;;;;10.32;7.22;;;18.80;99.90;;;17.83;86.24;101704.84;4202007;28;20028;-74